首页
METAR-TAF:

METAR-TAF

机场 :

里耶卡, 克罗地亚

纬度: 45-13N, 经度: 014-35E, 海拔: 85米

当前天气观测

该预报发布于2小时和30分钟前的17:00 UTC
风速2节,风向多变
温度 11°C
湿度 37%
气压 1012 hPa
能见度10公里或以上
1500米以下无云,无积雨云

METAR: LDRI 021700Z VRB02KT CAVOK 11/M03 Q1012

时间: 21:30 (19:30 UTC)

预报

该预报发布于8小时和5分钟前的11:25 UTC
预报有效从02日的 12点(UTC)到 03日的 12点(UTC)
风速2节,风向多变
能见度10公里或以上
1500米以下无云,无积雨云
短暂存在
从 02日的 12点(UTC)到 02日的 18点(UTC)
风速8节,风向西
短暂存在
从 03日的 10点(UTC)到 03日的 12点(UTC)
风速8节,风向西

TAF: LDRI 021125Z 0212/0312 VRB02KT CAVOK TX14/0213Z TN02/0303Z TEMPO 0212/0218 28008KT TEMPO 0310/0312 28008KT

超过4000个机场的气象观测和天气预报(METAR&TAF报告)。

可查询的气象台以黄色和红色小点在地图上表示。

将鼠标移到小点上方,可查看气象台名称。

然后点击查看天气观测和预报。

如需切换地图:点击带黑十字的绿色按钮放大地图;点击带横线的绿色按钮缩小地图;或者点击绿色箭头查看邻近地区的地图。


METAR-TAF: